LWSK

Skopje Alexander the Great Airport

Skopje, Macedonia
TAF LWSK 260230Z 2603/2703 VRB02KT CAVOK TEMPO 2612/2618 VRB20KT TSRA FEW035CB BKN040
Issued Valid From Valid To
Apr-26 @ 02:30 UTC
(an hour ago)
Apr-26 @ 03:00 UTC
(52 minutes ago)
Apr-27 @ 03:00 UTC
(in 23 hours)
Apr-26 @ 03:00 to Apr-27 @ 03:00
TAF LWSK 260230Z 2603/2703 VRB02KT CAVOK
Wind Visibility Clouds Conditions
Variable at 2 knots 10,000+ meters
  • No significant clouds
Temporary Apr-26 @ 12:00 to Apr-26 @ 18:00
TEMPO 2612/2618 VRB20KT TSRA FEW035CB BKN040
Wind Clouds Conditions
Variable at 20 knots
  • Few at 3,500' AGL
  • Broken at 4,000' AGL
  • Thunderstorm
  • Rain
TAF LWSK 260230Z 2603/2703 VRB02KT CAVOK TEMPO 2612/2618 VRB20KT TSRA FEW035CB BKN040
Issued Apr-26 @ 02:30 UTC
(an hour ago)
Valid From Apr-26 @ 03:00 UTC
(52 minutes ago)
Valid To Apr-27 @ 03:00 UTC
(in 23 hours)
Apr-26 @ 03:00 - Apr-27 @ 03:00
Wind Visibility
Variable at 2 knots 10,000+ meters
Clouds
  • No significant clouds
Conditions
Temporary Apr-26 @ 12:00 - Apr-26 @ 18:00
Wind
Variable at 20 knots
Clouds
  • Few at 3,500' AGL
  • Broken at 4,000' AGL
Conditions
  • Thunderstorm
  • Rain